Airport View

Enter AWOS ICAO identifier for current METAR.

ex. KFNL

KPLN 101532Z AUTO VRB03KT 4SM BR OVC005 23/22 A2990 RMK AO2 CIG 004V009 T02330222

10 Aug 2020 15:59

Frequency: 119.025

Phone: 231-539-7700

Other Area AWOS: KMGN - KSLH - KMCD - KCVX

TAF AMD KPLN 101527Z 1015/1112 23006KT 2SM BR OVC005 FM101800 23008KT P6SM VCTS SCT040CB BKN100 FM102000 26006KT 6SM -SHRA VCTS SCT040CB BKN080 FM110000 28007KT P6SM VCSH BKN040 FM110300 VRB04KT P6SM OVC040 FM110600 VRB03KT P6SM SCT250